Terminal Aerodrome Forecast
Issued by NWS

Home | Current Version | Previous Version | Text Only | Print | Product List | Glossary On
Versions: 1 2 3 4 5 6 7 8 9 10 11 12 13 14 15 16 17 18 19 20
000
FTUS45 KSLC 232341
TAFEVW
TAF
KEVW 232341Z 2400/2424 24007KT 2SM -SN BR BKN030 OVC040
     FM240200 23008KT P6SM SCT060 BKN120
     FM241200 24014KT P6SM SCT040 BKN050
     FM241900 24020G28KT P6SM SCT040 OVC050=

USA.gov is the U.S. government's official web portal to all federal, state and local government web resources and services.